createdAt,value
2023-01-31T00:00:15.657Z,102307.69
2023-01-31T00:02:44.319Z,102216.91
2023-01-31T00:05:12.547Z,102312.91
2023-01-31T00:07:39.978Z,102310.81
2023-01-31T00:10:09.221Z,102286.59
2023-01-31T00:12:36.121Z,102206.44
2023-01-31T00:15:04.346Z,102308.00
2023-01-31T00:17:31.344Z,102318.31
2023-01-31T00:19:58.348Z,102284.00
2023-01-31T00:22:26.914Z,102314.75
2023-01-31T00:24:53.659Z,102276.88
2023-01-31T00:27:20.384Z,102178.59
2023-01-31T00:29:47.139Z,102292.00
2023-01-31T00:32:14.051Z,102228.56
2023-01-31T00:34:40.874Z,102192.22
2023-01-31T00:37:08.955Z,102283.16
2023-01-31T00:39:37.127Z,102248.34
2023-01-31T00:42:04.229Z,102240.31
2023-01-31T00:44:32.108Z,102293.66
2023-01-31T00:46:59.003Z,102186.16
2023-01-31T00:49:25.826Z,102242.00
2023-01-31T00:51:54.171Z,102276.06
2023-01-31T00:54:20.926Z,102156.34
2023-01-31T00:56:49.264Z,102270.78
2023-01-31T00:59:16.473Z,102192.03
2023-01-31T01:01:43.569Z,102279.50
2023-01-31T01:04:10.621Z,102257.16
2023-01-31T01:06:39.197Z,102184.88
2023-01-31T01:09:06.341Z,102270.22
2023-01-31T01:11:34.518Z,102249.63
2023-01-31T01:14:03.170Z,102209.59
2023-01-31T01:16:33.373Z,102263.25
2023-01-31T01:19:01.777Z,102108.28
2023-01-31T01:21:31.153Z,102230.13
2023-01-31T01:24:00.268Z,102150.06
2023-01-31T01:26:29.633Z,102193.13
2023-01-31T01:28:58.253Z,102230.41
2023-01-31T01:31:28.736Z,102212.88
2023-01-31T01:33:56.679Z,102256.41
2023-01-31T01:36:23.935Z,102239.44
2023-01-31T01:38:50.862Z,102251.41
2023-01-31T01:41:19.445Z,102193.06
2023-01-31T01:43:48.528Z,102268.66
2023-01-31T01:46:17.965Z,102165.94
2023-01-31T01:48:51.233Z,102222.88
2023-01-31T01:51:20.467Z,102146.13
2023-01-31T01:53:51.528Z,102232.19
2023-01-31T01:56:21.829Z,102033.19
2023-01-31T01:58:56.509Z,102232.19
2023-01-31T02:01:25.386Z,102221.66
2023-01-31T02:03:54.135Z,102146.63
2023-01-31T02:06:21.790Z,102083.69
2023-01-31T02:08:50.333Z,102231.53
2023-01-31T02:11:22.815Z,102151.34
2023-01-31T02:13:51.305Z,102217.78
2023-01-31T02:16:18.423Z,102129.00
2023-01-31T02:18:46.239Z,102216.72
2023-01-31T02:21:56.509Z,102177.75
2023-01-31T02:24:59.708Z,102167.47
2023-01-31T02:27:56.291Z,102225.00
2023-01-31T02:30:51.909Z,102199.66
2023-01-31T02:33:28.919Z,102185.00
2023-01-31T02:36:08.147Z,102213.59
2023-01-31T02:38:52.853Z,102212.75
2023-01-31T02:41:27.347Z,102075.50
2023-01-31T02:43:59.167Z,102175.69
2023-01-31T02:46:34.989Z,102185.44
2023-01-31T02:49:11.633Z,102027.91
2023-01-31T02:51:45.879Z,101984.13
2023-01-31T02:54:17.971Z,102123.97
2023-01-31T02:56:48.958Z,102029.97
2023-01-31T02:59:20.883Z,101993.22
2023-01-31T03:01:55.357Z,102168.44
2023-01-31T03:04:23.913Z,102076.22
2023-01-31T03:07:04.464Z,102145.22
2023-01-31T03:09:50.008Z,102180.16
2023-01-31T03:12:50.331Z,102180.41
2023-01-31T03:15:38.010Z,102034.53
2023-01-31T03:18:11.287Z,102185.59
2023-01-31T03:20:44.771Z,102071.47
2023-01-31T03:23:16.320Z,102096.50
2023-01-31T03:25:45.663Z,102168.34
2023-01-31T03:28:16.369Z,102146.63
2023-01-31T03:30:51.261Z,102159.91
2023-01-31T03:33:23.008Z,102138.66
2023-01-31T03:35:56.637Z,102128.31
2023-01-31T03:38:28.537Z,102089.63
2023-01-31T03:40:59.079Z,102109.97
2023-01-31T03:43:31.646Z,101996.78
2023-01-31T03:46:06.569Z,102021.59
2023-01-31T03:48:41.374Z,102100.97
2023-01-31T03:51:16.215Z,101884.63
2023-01-31T03:53:48.693Z,101923.03
2023-01-31T03:56:18.655Z,101965.16
2023-01-31T03:58:50.548Z,102054.34
2023-01-31T04:01:18.911Z,101962.28
2023-01-31T04:03:51.512Z,102049.00
2023-01-31T04:06:19.873Z,102076.25
2023-01-31T04:08:47.288Z,101933.38
2023-01-31T04:11:17.661Z,102091.78
2023-01-31T04:13:45.150Z,102097.75
2023-01-31T04:16:12.439Z,102088.69
2023-01-31T04:18:39.326Z,102088.28
2023-01-31T04:21:06.106Z,102083.94
2023-01-31T04:23:34.339Z,102062.69
2023-01-31T04:26:01.686Z,102083.75
2023-01-31T04:28:28.422Z,102072.00
2023-01-31T04:30:56.603Z,102069.94
2023-01-31T04:33:23.739Z,102035.47
2023-01-31T04:35:51.665Z,102044.16
2023-01-31T04:38:18.487Z,101866.31
2023-01-31T04:40:47.065Z,101954.16
2023-01-31T04:43:13.864Z,102050.75
2023-01-31T04:45:40.836Z,102058.38
2023-01-31T04:48:07.858Z,102061.25
2023-01-31T04:50:34.819Z,102070.16
2023-01-31T04:53:02.076Z,101915.41
2023-01-31T04:55:28.900Z,102000.00
2023-01-31T04:57:58.198Z,101960.81
2023-01-31T05:00:25.185Z,101983.47
2023-01-31T05:02:52.093Z,102047.25
2023-01-31T05:05:19.607Z,102036.94
2023-01-31T05:07:46.608Z,102023.50
2023-01-31T05:10:13.858Z,102057.97
2023-01-31T05:12:40.663Z,101875.38
2023-01-31T05:15:10.622Z,102043.94
2023-01-31T05:17:37.853Z,102040.66
2023-01-31T05:20:09.594Z,102025.56
2023-01-31T05:22:37.276Z,102023.94
2023-01-31T05:25:05.164Z,101956.25
2023-01-31T05:27:31.863Z,101906.56
2023-01-31T05:29:58.744Z,102019.00
2023-01-31T05:32:27.058Z,101958.94
2023-01-31T05:34:56.743Z,101866.56
2023-01-31T05:37:23.542Z,101934.41
2023-01-31T05:39:50.822Z,102022.28
2023-01-31T05:42:17.528Z,101981.03
2023-01-31T05:44:44.273Z,102001.66
2023-01-31T05:47:11.202Z,101899.78
2023-01-31T05:49:39.867Z,101917.69
2023-01-31T05:52:06.635Z,101837.91
2023-01-31T05:54:33.551Z,101915.84
2023-01-31T05:57:00.476Z,101985.13
2023-01-31T05:59:27.220Z,101861.84
2023-01-31T06:01:54.117Z,101967.00
2023-01-31T06:04:21.093Z,101970.91
2023-01-31T06:06:49.458Z,101968.63
2023-01-31T06:09:16.329Z,101941.19
2023-01-31T06:11:43.089Z,101930.91
2023-01-31T06:14:09.919Z,101896.06
2023-01-31T06:16:36.863Z,101964.06
2023-01-31T06:19:04.335Z,101847.41
2023-01-31T06:21:32.023Z,101975.19
2023-01-31T06:24:01.353Z,101882.00
2023-01-31T06:26:28.123Z,101947.97
2023-01-31T06:28:55.432Z,101853.34
2023-01-31T06:31:22.464Z,101913.97
2023-01-31T06:33:49.338Z,101850.28
2023-01-31T06:36:18.939Z,101929.38
2023-01-31T06:38:49.818Z,101924.84
2023-01-31T06:41:18.099Z,101941.31
2023-01-31T06:43:44.882Z,101755.88
2023-01-31T06:46:11.963Z,101739.03
2023-01-31T06:48:38.863Z,101765.78
2023-01-31T06:51:06.305Z,101927.28
2023-01-31T06:53:33.168Z,101705.66
2023-01-31T06:56:00.983Z,101932.25
2023-01-31T06:58:29.261Z,101707.28
2023-01-31T07:00:56.253Z,101891.97
2023-01-31T07:03:25.652Z,101865.81
2023-01-31T07:05:52.899Z,101904.19
2023-01-31T07:08:20.101Z,101911.16
2023-01-31T07:10:47.986Z,101903.94
2023-01-31T07:13:15.592Z,101901.25
2023-01-31T07:15:44.038Z,101898.81
2023-01-31T07:18:11.986Z,101804.59
2023-01-31T07:20:39.782Z,101752.13
2023-01-31T07:23:06.865Z,101865.63
2023-01-31T07:25:33.715Z,101890.31
2023-01-31T07:28:02.456Z,101845.81
2023-01-31T07:30:30.765Z,101874.47
2023-01-31T07:33:00.501Z,101902.06
2023-01-31T07:35:28.392Z,101893.84
2023-01-31T07:37:56.777Z,101838.63
2023-01-31T07:40:23.577Z,101916.09
2023-01-31T07:42:50.392Z,101933.84
2023-01-31T07:45:23.414Z,101924.97
2023-01-31T07:47:50.468Z,101895.56
2023-01-31T07:50:19.494Z,101921.47
2023-01-31T07:52:46.352Z,101896.88
2023-01-31T07:55:13.036Z,101875.25
2023-01-31T07:57:41.163Z,101873.38
2023-01-31T08:00:10.921Z,101892.72
2023-01-31T08:02:37.584Z,101773.50
2023-01-31T08:05:05.182Z,101861.19
2023-01-31T08:07:33.366Z,101873.13
2023-01-31T08:10:00.125Z,101868.13
2023-01-31T08:12:26.916Z,101877.44
2023-01-31T08:14:53.648Z,101883.00
2023-01-31T08:17:20.332Z,101884.47
2023-01-31T08:19:47.393Z,101861.50
2023-01-31T08:22:14.140Z,101880.50
2023-01-31T08:24:42.246Z,101860.25
2023-01-31T08:27:09.091Z,101854.66
2023-01-31T08:29:36.132Z,101863.53
2023-01-31T08:32:02.928Z,101851.31
2023-01-31T08:34:30.353Z,101867.63
2023-01-31T08:36:59.533Z,101863.75
2023-01-31T08:39:26.383Z,101723.91
2023-01-31T08:41:54.609Z,101859.00
2023-01-31T08:44:21.419Z,101731.50
2023-01-31T08:46:48.254Z,101790.31
2023-01-31T08:49:15.215Z,101705.16
2023-01-31T08:51:43.800Z,101648.78
2023-01-31T08:54:10.879Z,101807.31
2023-01-31T08:56:37.829Z,101799.25
2023-01-31T08:59:06.363Z,101808.03
2023-01-31T09:01:33.706Z,101702.75
2023-01-31T09:04:00.831Z,101722.50
2023-01-31T09:06:44.817Z,101742.22
2023-01-31T09:09:11.869Z,101804.50
2023-01-31T09:11:38.549Z,101794.38
2023-01-31T09:14:07.032Z,101772.94
2023-01-31T09:16:34.375Z,101683.63
2023-01-31T09:19:01.131Z,101640.22
2023-01-31T09:21:27.998Z,101810.50
2023-01-31T09:23:56.603Z,101752.59
2023-01-31T09:26:23.700Z,101760.28
2023-01-31T09:28:50.467Z,101790.00
2023-01-31T09:31:20.629Z,101771.34
2023-01-31T09:33:48.415Z,101751.22
2023-01-31T09:36:17.890Z,101778.94
2023-01-31T09:38:44.936Z,101756.69
2023-01-31T09:41:19.235Z,101684.63
2023-01-31T09:43:53.048Z,101730.66
2023-01-31T09:46:26.244Z,101745.75
2023-01-31T09:48:57.344Z,101759.13
2023-01-31T09:51:24.154Z,101666.47
2023-01-31T09:53:51.244Z,101780.16
2023-01-31T09:56:30.840Z,101784.03
2023-01-31T09:59:07.094Z,101780.75
2023-01-31T10:01:44.740Z,101784.81
2023-01-31T10:04:29.448Z,101797.03
2023-01-31T10:07:01.832Z,101700.03
2023-01-31T10:09:34.000Z,101790.69
2023-01-31T10:12:10.494Z,101795.03
2023-01-31T10:14:43.102Z,101791.72
2023-01-31T10:17:17.082Z,101799.13
2023-01-31T10:19:48.444Z,101740.53
2023-01-31T10:22:18.206Z,101793.59
2023-01-31T10:24:49.687Z,101778.41
2023-01-31T10:27:24.842Z,101682.41
2023-01-31T10:29:55.651Z,101705.66
2023-01-31T10:32:33.674Z,101802.59
2023-01-31T10:35:10.070Z,101796.44
2023-01-31T10:37:44.413Z,101771.56
2023-01-31T10:40:16.232Z,101696.41
2023-01-31T10:42:49.227Z,101716.81
2023-01-31T10:45:18.268Z,101784.34
2023-01-31T10:47:50.848Z,101601.06
2023-01-31T10:50:20.313Z,101698.00
2023-01-31T10:53:01.822Z,101690.50
2023-01-31T10:55:55.439Z,101791.69
2023-01-31T10:58:23.882Z,101780.91
2023-01-31T11:00:51.134Z,101701.41
2023-01-31T11:03:19.996Z,101756.09
2023-01-31T11:05:50.438Z,101767.84
2023-01-31T11:08:33.375Z,101738.19
2023-01-31T11:11:06.963Z,101757.09
2023-01-31T11:13:33.703Z,101695.63
2023-01-31T11:16:03.200Z,101744.03
2023-01-31T11:18:35.184Z,101752.16
2023-01-31T11:21:03.836Z,101616.00
2023-01-31T11:23:35.096Z,101670.81
2023-01-31T11:26:03.109Z,101669.41
2023-01-31T11:28:36.338Z,101748.50
2023-01-31T11:31:06.532Z,101768.50
2023-01-31T11:33:43.007Z,101627.53
2023-01-31T11:36:12.038Z,101628.72
2023-01-31T11:38:38.947Z,101661.34
2023-01-31T11:41:42.312Z,101653.84
2023-01-31T11:44:15.465Z,101653.91
2023-01-31T11:46:47.242Z,101625.84
2023-01-31T11:49:22.816Z,101734.03
2023-01-31T11:51:51.116Z,101713.66
2023-01-31T11:54:20.314Z,101669.78
2023-01-31T11:56:48.060Z,101633.38
2023-01-31T11:59:21.625Z,101708.91
2023-01-31T12:01:50.610Z,101688.63
2023-01-31T12:04:23.901Z,101697.47
2023-01-31T12:06:59.984Z,101705.34
2023-01-31T12:09:30.929Z,101678.16
2023-01-31T12:11:59.149Z,101691.66
2023-01-31T12:14:38.039Z,101707.13
2023-01-31T12:17:06.140Z,101692.34
2023-01-31T12:19:46.456Z,101631.28
2023-01-31T12:22:18.696Z,101692.94
2023-01-31T12:24:57.462Z,101623.31
2023-01-31T12:27:39.171Z,101663.06
2023-01-31T12:30:26.452Z,101665.03
2023-01-31T12:33:05.379Z,101481.66
2023-01-31T12:35:56.719Z,101555.97
2023-01-31T12:38:37.917Z,101583.06
2023-01-31T12:41:18.574Z,101671.09
2023-01-31T12:44:00.432Z,101659.38
2023-01-31T12:46:40.686Z,101652.28
2023-01-31T12:49:44.900Z,101647.09
2023-01-31T12:52:34.774Z,101638.22
2023-01-31T12:55:15.770Z,101646.53
2023-01-31T12:57:56.285Z,101661.91
2023-01-31T13:00:32.652Z,101563.31
2023-01-31T13:03:39.114Z,101636.75
2023-01-31T13:06:11.309Z,101637.47
2023-01-31T13:08:42.396Z,101656.19
2023-01-31T13:11:17.651Z,101528.22
2023-01-31T13:13:49.577Z,101528.22
2023-01-31T13:16:21.410Z,101635.13
2023-01-31T13:18:51.066Z,101624.50
2023-01-31T13:21:22.723Z,101674.72
2023-01-31T13:23:55.948Z,101673.34
2023-01-31T13:26:27.905Z,101651.06
2023-01-31T13:29:00.714Z,101596.97
2023-01-31T13:31:29.110Z,101681.78
2023-01-31T13:34:05.413Z,101707.69
2023-01-31T13:36:35.787Z,101700.75
2023-01-31T13:39:12.697Z,101688.91
2023-01-31T13:41:41.933Z,101713.03
2023-01-31T13:44:13.746Z,101678.34
2023-01-31T13:46:47.856Z,101693.47
2023-01-31T13:49:23.329Z,101554.59
2023-01-31T13:51:55.726Z,101712.59
2023-01-31T13:54:35.660Z,101715.28
2023-01-31T13:57:04.069Z,101698.88
2023-01-31T13:59:33.999Z,101682.47
2023-01-31T14:02:04.141Z,101708.84
2023-01-31T14:04:39.860Z,101701.72
2023-01-31T14:07:23.209Z,101700.66
2023-01-31T14:10:27.375Z,101709.22
2023-01-31T14:13:25.347Z,101708.41
2023-01-31T14:15:53.861Z,101707.91
2023-01-31T14:18:38.061Z,101703.94
2023-01-31T14:21:43.673Z,101707.69
2023-01-31T14:24:19.952Z,101701.63
2023-01-31T14:26:55.192Z,101631.66
2023-01-31T14:29:24.421Z,101712.03
2023-01-31T14:31:54.503Z,101716.97
2023-01-31T14:34:25.092Z,101724.22
2023-01-31T14:37:06.141Z,101625.75
2023-01-31T14:40:00.465Z,101646.34
2023-01-31T14:43:00.174Z,101752.94
2023-01-31T14:45:58.839Z,101734.66
2023-01-31T14:49:00.298Z,101665.44
2023-01-31T14:51:37.840Z,101724.81
2023-01-31T14:54:33.354Z,101720.03
2023-01-31T14:57:17.060Z,101738.88
2023-01-31T14:59:52.856Z,101594.91
2023-01-31T15:03:01.837Z,101744.63
2023-01-31T15:05:44.348Z,101738.16
2023-01-31T15:08:48.764Z,101758.78
2023-01-31T15:11:42.434Z,101715.53
2023-01-31T15:14:35.205Z,101759.88
2023-01-31T15:17:20.096Z,101769.94
2023-01-31T15:19:58.537Z,101772.88
2023-01-31T15:22:25.906Z,101720.69
2023-01-31T15:24:55.991Z,101746.59
2023-01-31T15:27:27.721Z,101728.56
2023-01-31T15:30:02.600Z,101758.47
2023-01-31T15:32:38.264Z,101762.53
2023-01-31T15:35:14.629Z,101659.50
2023-01-31T15:37:42.485Z,101767.00
2023-01-31T15:40:18.970Z,101685.13
2023-01-31T15:42:46.248Z,101768.84
2023-01-31T15:45:21.279Z,101769.78
2023-01-31T15:47:58.456Z,101798.25
2023-01-31T15:50:29.671Z,101772.13
2023-01-31T15:52:56.964Z,101793.41
2023-01-31T15:55:24.469Z,101610.56
2023-01-31T15:57:54.490Z,101735.69
2023-01-31T16:00:25.320Z,101819.28
2023-01-31T16:02:52.702Z,101812.78
2023-01-31T16:05:22.036Z,101830.66
2023-01-31T16:07:50.688Z,101823.75
2023-01-31T16:10:19.188Z,101755.69
2023-01-31T16:12:49.486Z,101814.09
2023-01-31T16:15:22.379Z,101823.84
2023-01-31T16:17:50.273Z,101835.09
2023-01-31T16:20:39.645Z,101806.19
2023-01-31T16:23:24.569Z,101841.00
2023-01-31T16:25:55.603Z,101829.63
2023-01-31T16:28:23.113Z,101843.56
2023-01-31T16:30:50.642Z,101815.44
2023-01-31T16:33:19.609Z,101854.63
2023-01-31T16:35:46.471Z,101845.47
2023-01-31T16:38:24.822Z,101827.63
2023-01-31T16:40:53.796Z,101819.41
2023-01-31T16:43:23.430Z,101828.88
2023-01-31T16:45:52.564Z,101833.22
2023-01-31T16:48:25.921Z,101790.03
2023-01-31T16:50:56.322Z,101737.63
2023-01-31T16:53:34.404Z,101626.50
2023-01-31T16:56:22.042Z,101802.09
2023-01-31T16:58:59.058Z,101825.13
2023-01-31T17:01:31.154Z,101771.44
2023-01-31T17:04:06.454Z,101838.56
2023-01-31T17:06:34.333Z,101640.63
2023-01-31T17:09:07.199Z,101723.56
2023-01-31T17:11:43.097Z,101829.31
2023-01-31T17:14:14.576Z,101652.03
2023-01-31T17:16:41.975Z,101684.34
2023-01-31T17:19:08.972Z,101842.84
2023-01-31T17:21:40.897Z,101660.28
2023-01-31T17:24:13.549Z,101811.09
2023-01-31T17:26:40.797Z,101772.97
2023-01-31T17:29:09.221Z,101841.06
2023-01-31T17:31:36.277Z,101800.09
2023-01-31T17:34:03.095Z,101706.50
2023-01-31T17:36:30.537Z,101721.34
2023-01-31T17:38:57.602Z,101706.53
2023-01-31T17:41:26.299Z,101676.56
2023-01-31T17:43:53.106Z,101786.03
2023-01-31T17:46:31.502Z,101748.31
2023-01-31T17:48:59.544Z,101751.41
2023-01-31T17:51:33.867Z,101790.28
2023-01-31T17:54:00.853Z,101826.06
2023-01-31T17:56:29.372Z,101769.38
2023-01-31T17:58:56.457Z,101740.22
2023-01-31T18:01:28.737Z,101785.19
2023-01-31T18:03:55.692Z,101663.91
2023-01-31T18:06:22.744Z,101667.81
2023-01-31T18:08:52.265Z,101855.34
2023-01-31T18:11:22.543Z,101790.06
2023-01-31T18:13:52.120Z,101671.41
2023-01-31T18:16:20.633Z,101752.22
2023-01-31T18:18:52.210Z,101674.25
2023-01-31T18:21:21.992Z,101820.13
2023-01-31T18:23:55.477Z,101657.28
2023-01-31T18:26:25.245Z,101841.75
2023-01-31T18:28:53.957Z,101772.66
2023-01-31T18:31:21.236Z,101719.09
2023-01-31T18:33:48.470Z,101842.78
2023-01-31T18:36:17.711Z,101845.25
2023-01-31T18:38:46.361Z,101755.75
2023-01-31T18:41:15.255Z,101851.38
2023-01-31T18:43:43.267Z,101748.63
2023-01-31T18:46:12.980Z,101688.50
2023-01-31T18:48:40.818Z,101753.34
2023-01-31T18:51:16.732Z,101820.97
2023-01-31T18:53:47.194Z,101836.69
2023-01-31T18:56:16.602Z,101756.88
2023-01-31T18:58:46.707Z,101782.75
2023-01-31T19:01:20.109Z,101748.00
2023-01-31T19:03:50.867Z,101753.38
2023-01-31T19:06:20.423Z,101855.66
2023-01-31T19:08:48.453Z,101849.47
2023-01-31T19:11:17.095Z,101861.69
2023-01-31T19:13:44.738Z,101867.59
2023-01-31T19:16:15.533Z,101691.09
2023-01-31T19:18:42.683Z,101784.84
2023-01-31T19:21:16.415Z,101767.78
2023-01-31T19:23:45.083Z,101668.81
2023-01-31T19:26:12.704Z,101784.66
2023-01-31T19:28:40.387Z,101838.56
2023-01-31T19:31:09.082Z,101776.22
2023-01-31T19:33:37.942Z,101826.47
2023-01-31T19:36:10.228Z,101765.88
2023-01-31T19:38:37.694Z,101823.47
2023-01-31T19:41:06.169Z,101800.78
2023-01-31T19:43:33.588Z,101774.09
2023-01-31T19:46:00.888Z,101647.75
2023-01-31T19:48:28.101Z,101644.88
2023-01-31T19:50:57.422Z,101704.88
2023-01-31T19:53:25.166Z,101823.06
2023-01-31T19:55:53.449Z,101793.88
2023-01-31T19:58:21.175Z,101745.38
2023-01-31T20:00:48.337Z,101778.69
2023-01-31T20:06:18.342Z,101785.47
2023-01-31T20:08:50.691Z,101678.72
2023-01-31T20:11:18.005Z,101648.69
2023-01-31T20:13:44.931Z,101658.13
2023-01-31T20:16:31.299Z,101833.47
2023-01-31T20:19:05.656Z,101639.59
2023-01-31T20:21:34.531Z,101660.63
2023-01-31T20:24:11.168Z,101856.06
2023-01-31T20:26:38.609Z,101813.50
2023-01-31T20:29:07.768Z,101758.97
2023-01-31T20:31:39.971Z,101663.09
2023-01-31T20:34:09.458Z,101744.94
2023-01-31T20:36:40.700Z,101856.50
2023-01-31T20:39:10.901Z,101692.72
2023-01-31T20:41:40.890Z,101872.63
2023-01-31T20:44:10.732Z,101681.41
2023-01-31T20:46:40.437Z,101773.16
2023-01-31T20:49:12.191Z,101855.28
2023-01-31T20:51:44.295Z,101662.91
2023-01-31T20:54:13.252Z,101854.84
2023-01-31T20:56:44.407Z,101705.47
2023-01-31T20:59:17.214Z,101734.22
2023-01-31T21:01:44.284Z,101790.28
2023-01-31T21:04:14.616Z,101654.69
2023-01-31T21:06:43.398Z,101796.63
2023-01-31T21:09:13.419Z,101834.22
2023-01-31T21:11:43.625Z,101804.44
2023-01-31T21:14:14.874Z,101681.81
2023-01-31T21:16:45.436Z,101859.47
2023-01-31T21:19:18.666Z,101650.16
2023-01-31T21:21:48.320Z,101747.63
2023-01-31T21:24:23.399Z,101847.06
2023-01-31T21:27:10.001Z,101823.66
2023-01-31T21:29:37.111Z,101843.34
2023-01-31T21:32:07.578Z,101729.56
2023-01-31T21:34:37.779Z,101833.22
2023-01-31T21:37:06.755Z,101840.47
2023-01-31T21:39:33.478Z,101845.41
2023-01-31T21:42:01.398Z,101830.50
2023-01-31T21:44:28.154Z,101825.34
2023-01-31T21:46:55.122Z,101707.44
2023-01-31T21:49:22.083Z,101737.72
2023-01-31T21:51:49.106Z,101826.78
2023-01-31T21:54:17.393Z,101703.66
2023-01-31T21:56:44.592Z,101807.13
2023-01-31T21:59:12.273Z,101704.25
2023-01-31T22:01:39.367Z,101701.56
2023-01-31T22:04:06.199Z,101763.69
2023-01-31T22:06:36.029Z,101755.38
2023-01-31T22:09:04.308Z,101819.47
2023-01-31T22:11:32.785Z,101799.66
2023-01-31T22:14:00.817Z,101809.34
2023-01-31T22:16:28.072Z,101792.97
2023-01-31T22:18:55.020Z,101684.13
2023-01-31T22:21:24.703Z,101715.50
2023-01-31T22:23:53.133Z,101670.56
2023-01-31T22:26:21.990Z,101805.78
2023-01-31T22:28:50.735Z,101783.66
2023-01-31T22:31:18.518Z,101809.72
2023-01-31T22:33:47.250Z,101816.13
2023-01-31T22:36:15.255Z,101691.91
2023-01-31T22:38:42.733Z,101702.78
2023-01-31T22:41:12.258Z,101795.63
2023-01-31T22:43:40.575Z,101794.03
2023-01-31T22:46:12.423Z,101624.59
2023-01-31T22:48:39.699Z,101794.22
2023-01-31T22:51:11.954Z,101797.28
2023-01-31T22:53:39.954Z,101782.38
2023-01-31T22:56:08.823Z,101769.59
2023-01-31T22:58:36.624Z,101782.38
2023-01-31T23:01:16.876Z,101692.69
2023-01-31T23:03:45.518Z,101779.47
2023-01-31T23:06:13.385Z,101761.53
2023-01-31T23:08:41.217Z,101735.38
2023-01-31T23:11:10.268Z,101779.63
2023-01-31T23:13:37.499Z,101769.91
2023-01-31T23:16:06.231Z,101773.66
2023-01-31T23:18:34.987Z,101730.63
2023-01-31T23:21:08.683Z,101758.34
2023-01-31T23:23:42.238Z,101676.63
2023-01-31T23:26:09.615Z,101787.69
2023-01-31T23:28:37.920Z,101716.41
2023-01-31T23:31:05.648Z,101762.69
2023-01-31T23:33:34.820Z,101755.00
2023-01-31T23:36:01.699Z,101751.72
2023-01-31T23:38:28.475Z,101748.81
2023-01-31T23:40:55.381Z,101744.72
2023-01-31T23:43:22.724Z,101707.47
2023-01-31T23:45:49.666Z,101739.69
2023-01-31T23:48:17.032Z,101711.09
2023-01-31T23:50:45.293Z,101727.97
2023-01-31T23:53:12.170Z,101718.88
2023-01-31T23:55:38.962Z,101706.09
2023-01-31T23:58:05.899Z,101579.13
